Time;durP1;ratioP1;P1;durP2;ratioP2;P2;SDS_P1;SDS_P2;PMS_P1;PMS_P2;Temp;Humidity;BMP_temperature;BMP_pressure;BME280_temperature;BME280_humidity;BME280_pressure;Samples;Min_cycle;Max_cycle;Signal;HPM_P1;HPM_P2
2022/11/23 00:03:13;;;;;;;;;;;16.00;68.40;;;;;;10305605;28;19934;-68
2022/11/23 00:08:15;;;;;;;;;;;16.00;68.30;;;;;;10305537;28;20052;-68
2022/11/23 00:13:17;;;;;;;;;;;16.00;68.30;;;;;;10303207;28;19979;-68
2022/11/23 00:18:19;;;;;;;;;;;16.00;68.40;;;;;;10304680;28;20631;-68
2022/11/23 00:23:20;;;;;;;;;;;15.90;68.40;;;;;;10304534;28;20497;-68
2022/11/23 00:28:22;;;;;;;;;;;15.90;68.50;;;;;;10303946;28;20021;-68
2022/11/23 00:33:24;;;;;;;;;;;15.90;68.50;;;;;;10303000;28;20029;-68
2022/11/23 00:38:26;;;;;;;;;;;15.80;68.50;;;;;;10305770;28;19934;-69
2022/11/23 00:43:28;;;;;;;;;;;15.80;68.60;;;;;;10305628;28;19973;-68
2022/11/23 00:48:30;;;;;;;;;;;15.80;68.70;;;;;;10303883;28;19935;-69
2022/11/23 00:53:32;;;;;;;;;;;15.80;68.90;;;;;;10304348;28;20028;-69
2022/11/23 00:58:34;;;;;;;;;;;15.80;68.80;;;;;;10302904;28;19934;-68
2022/11/23 01:03:36;;;;;;;;;;;15.70;68.80;;;;;;10301873;28;19941;-67
2022/11/23 01:08:38;;;;;;;;;;;15.80;68.70;;;;;;10302248;28;19934;-68
2022/11/23 01:13:40;;;;;;;;;;;15.90;68.50;;;;;;10302775;28;20835;-68
2022/11/23 01:18:42;;;;;;;;;;;16.00;68.30;;;;;;10300547;28;20049;-67
2022/11/23 01:23:44;;;;;;;;;;;16.00;68.30;;;;;;10300532;28;20021;-68
2022/11/23 01:28:46;;;;;;;;;;;16.00;68.30;;;;;;10302437;28;19935;-68
2022/11/23 01:33:53;;;;;;;;;;;16.00;68.30;;;;;;10301169;28;19972;-68
2022/11/23 01:38:54;;;;;;;;;;;15.90;68.20;;;;;;10301341;28;19935;-69
2022/11/23 01:43:56;;;;;;;;;;;15.90;68.30;;;;;;10301425;28;19935;-68
2022/11/23 01:49:02;;;;;;;;;;;15.80;68.40;;;;;;10301283;28;19938;-68
2022/11/23 01:54:08;;;;;;;;;;;15.80;69.20;;;;;;10301024;28;20024;-68
2022/11/23 01:59:12;;;;;;;;;;;15.80;68.50;;;;;;10300471;28;20025;-68
2022/11/23 02:04:18;;;;;;;;;;;15.80;68.60;;;;;;10734587;22;20510;-70
2022/11/23 02:09:20;;;;;;;;;;;15.70;68.70;;;;;;10341259;28;19938;-70
2022/11/23 02:14:22;;;;;;;;;;;15.70;68.80;;;;;;10341027;28;20688;-70
2022/11/23 02:19:33;;;;;;;;;;;15.70;68.80;;;;;;10341568;28;19934;-70
2022/11/23 02:24:38;;;;;;;;;;;15.70;68.90;;;;;;10340165;28;19934;-70
2022/11/23 02:29:40;;;;;;;;;;;15.80;68.70;;;;;;10340560;28;20049;-70
2022/11/23 02:34:41;;;;;;;;;;;15.90;68.50;;;;;;10340009;28;19965;-70
2022/11/23 02:39:44;;;;;;;;;;;15.90;68.40;;;;;;10339170;28;20028;-70
2022/11/23 02:45:05;;;;;;;;;;;15.90;68.30;;;;;;10339906;28;19944;-70
2022/11/23 02:50:06;;;;;;;;;;;15.90;68.30;;;;;;10337519;28;19985;-70
2022/11/23 02:55:08;;;;;;;;;;;15.80;68.20;;;;;;10340238;28;19934;-70
2022/11/23 03:00:10;;;;;;;;;;;15.80;68.30;;;;;;10340305;28;20032;-70
2022/11/23 03:05:12;;;;;;;;;;;15.80;68.40;;;;;;10338139;28;19934;-70
2022/11/23 03:10:13;;;;;;;;;;;15.70;68.50;;;;;;10340594;28;19941;-70
2022/11/23 03:15:15;;;;;;;;;;;15.70;68.60;;;;;;10339138;28;20312;-70
2022/11/23 03:20:17;;;;;;;;;;;15.70;68.70;;;;;;10338880;28;20029;-70
2022/11/23 03:25:19;;;;;;;;;;;15.70;68.80;;;;;;10338137;28;20479;-70
2022/11/23 03:30:21;;;;;;;;;;;15.60;68.80;;;;;;10345381;28;20020;-70
2022/11/23 03:35:22;;;;;;;;;;;15.60;68.90;;;;;;10345077;28;20025;-70
2022/11/23 03:40:24;;;;;;;;;;;15.70;69.00;;;;;;10346646;28;20029;-70
2022/11/23 03:45:26;;;;;;;;;;;15.70;68.70;;;;;;10346556;28;20471;-70
2022/11/23 03:50:28;;;;;;;;;;;15.80;68.40;;;;;;10344768;28;19965;-70
2022/11/23 03:55:30;;;;;;;;;;;15.80;68.50;;;;;;10346691;28;19934;-70
2022/11/23 04:00:32;;;;;;;;;;;15.80;68.30;;;;;;10344853;28;19933;-70
2022/11/23 04:05:34;;;;;;;;;;;15.80;68.30;;;;;;10345382;28;19940;-70
2022/11/23 04:10:36;;;;;;;;;;;15.80;68.30;;;;;;10345853;28;20033;-70
2022/11/23 04:15:38;;;;;;;;;;;15.80;68.40;;;;;;10343442;28;19934;-70
2022/11/23 04:20:39;;;;;;;;;;;15.80;68.60;;;;;;10344669;28;19934;-70
2022/11/23 04:25:41;;;;;;;;;;;15.90;68.40;;;;;;10344801;28;20036;-70
2022/11/23 04:30:43;;;;;;;;;;;16.00;68.20;;;;;;10343521;28;19941;-70
2022/11/23 04:35:45;;;;;;;;;;;16.00;68.00;;;;;;10344343;28;19938;-70
2022/11/23 04:40:48;;;;;;;;;;;16.00;67.90;;;;;;10342364;28;20020;-70
2022/11/23 04:45:49;;;;;;;;;;;15.90;67.90;;;;;;10343785;28;19940;-70
2022/11/23 04:50:51;;;;;;;;;;;15.90;68.00;;;;;;10343749;28;20041;-70
2022/11/23 04:55:56;;;;;;;;;;;15.90;68.00;;;;;;10341852;28;19934;-70
2022/11/23 05:00:58;;;;;;;;;;;15.80;68.10;;;;;;10343305;28;20025;-70
2022/11/23 05:06:03;;;;;;;;;;;15.80;68.10;;;;;;10342505;28;19981;-69
2022/11/23 05:11:05;;;;;;;;;;;15.70;68.20;;;;;;10343756;28;19940;-70
2022/11/23 05:16:07;;;;;;;;;;;15.70;68.30;;;;;;10342936;28;20028;-70
2022/11/23 05:21:08;;;;;;;;;;;15.70;68.40;;;;;;10342149;28;20389;-69
2022/11/23 05:26:10;;;;;;;;;;;15.60;68.40;;;;;;10343077;28;19984;-69
2022/11/23 05:31:12;;;;;;;;;;;15.60;68.50;;;;;;10341224;28;19940;-70
2022/11/23 05:36:13;;;;;;;;;;;15.60;68.70;;;;;;10342525;28;20300;-70
2022/11/23 05:41:15;;;;;;;;;;;15.70;68.70;;;;;;10342912;28;19935;-71
2022/11/23 05:46:17;;;;;;;;;;;15.80;68.50;;;;;;10343074;28;20685;-70
2022/11/23 05:51:19;;;;;;;;;;;16.00;68.30;;;;;;10340374;28;19985;-70
2022/11/23 05:56:21;;;;;;;;;;;16.30;67.80;;;;;;10342927;28;20033;-70
2022/11/23 06:01:23;;;;;;;;;;;16.50;67.30;;;;;;10340742;28;20076;-70
2022/11/23 06:06:24;;;;;;;;;;;16.60;66.70;;;;;;10339073;28;20033;-70
2022/11/23 06:11:27;;;;;;;;;;;16.70;66.50;;;;;;10342661;28;19941;-71
2022/11/23 06:16:28;;;;;;;;;;;16.60;66.30;;;;;;10341600;28;20412;-70
2022/11/23 06:21:30;;;;;;;;;;;16.60;66.40;;;;;;10340779;28;20033;-69
2022/11/23 06:26:32;;;;;;;;;;;16.50;66.50;;;;;;10341624;28;20053;-70
2022/11/23 06:31:35;;;;;;;;;;;16.50;66.60;;;;;;10341177;28;20029;-70
2022/11/23 06:36:36;;;;;;;;;;;16.40;66.70;;;;;;10341485;28;20033;-68
2022/11/23 06:41:38;;;;;;;;;;;16.30;66.90;;;;;;10341537;28;20419;-69
2022/11/23 06:46:40;;;;;;;;;;;16.30;67.90;;;;;;10340748;28;20460;-70
2022/11/23 06:51:41;;;;;;;;;;;16.30;67.80;;;;;;10340969;28;20024;-70
2022/11/23 06:56:43;;;;;;;;;;;16.30;67.80;;;;;;10340321;28;20029;-70
2022/11/23 07:01:45;;;;;;;;;;;16.40;67.70;;;;;;10342340;28;20385;-70
2022/11/23 07:06:47;;;;;;;;;;;16.60;67.30;;;;;;10347609;28;19934;-69
2022/11/23 07:11:49;;;;;;;;;;;16.90;66.80;;;;;;10346744;28;20416;-70
2022/11/23 07:16:51;;;;;;;;;;;17.00;66.40;;;;;;10347704;28;20369;-70
2022/11/23 07:21:53;;;;;;;;;;;17.00;66.10;;;;;;10346879;28;20021;-70
2022/11/23 07:26:54;;;;;;;;;;;17.00;66.10;;;;;;10347644;28;19940;-70
2022/11/23 07:31:56;;;;;;;;;;;16.90;66.10;;;;;;10346974;28;19977;-70
2022/11/23 07:36:58;;;;;;;;;;;16.80;66.30;;;;;;10346945;28;20021;-70
2022/11/23 07:42:02;;;;;;;;;;;16.70;66.30;;;;;;10346622;28;19962;-71
2022/11/23 07:47:24;;;;;;;;;;;16.70;66.60;;;;;;10346681;28;19941;-69
2022/11/23 07:52:26;;;;;;;;;;;16.50;66.70;;;;;;10346625;28;20017;-70
2022/11/23 07:57:28;;;;;;;;;;;16.50;67.00;;;;;;10344431;28;20034;-70
2022/11/23 08:02:29;;;;;;;;;;;16.40;67.20;;;;;;10345202;28;20033;-69
2022/11/23 08:07:31;;;;;;;;;;;16.30;67.10;;;;;;10345235;28;19934;-71
2022/11/23 08:12:33;;;;;;;;;;;16.30;67.30;;;;;;10345353;28;19934;-71
2022/11/23 08:17:35;;;;;;;;;;;16.20;67.60;;;;;;10345205;28;19935;-70
2022/11/23 08:22:37;;;;;;;;;;;16.10;67.70;;;;;;10345458;28;20024;-70
2022/11/23 08:27:38;;;;;;;;;;;16.10;67.80;;;;;;10345552;28;19942;-70
2022/11/23 08:32:40;;;;;;;;;;;16.00;67.90;;;;;;10344806;28;20017;-70
2022/11/23 08:37:42;;;;;;;;;;;16.00;68.10;;;;;;10343539;28;20036;-70
2022/11/23 08:42:45;;;;;;;;;;;15.90;68.10;;;;;;10344923;28;19973;-69
2022/11/23 08:47:46;;;;;;;;;;;15.90;68.20;;;;;;10344254;28;19981;-70
2022/11/23 08:52:53;;;;;;;;;;;15.90;69.30;;;;;;10345030;28;20032;-70
2022/11/23 08:57:56;;;;;;;;;;;15.80;68.40;;;;;;10342993;28;20048;-70
2022/11/23 09:02:57;;;;;;;;;;;15.80;68.50;;;;;;10342873;28;20428;-69
2022/11/23 09:07:59;;;;;;;;;;;15.80;68.70;;;;;;10343120;28;19940;-69
2022/11/23 09:13:02;;;;;;;;;;;15.70;68.70;;;;;;10343792;28;20393;-69
2022/11/23 09:18:03;;;;;;;;;;;15.80;68.80;;;;;;10343634;28;19938;-70
2022/11/23 09:23:05;;;;;;;;;;;15.90;68.60;;;;;;10343248;28;19934;-69
2022/11/23 09:28:21;;;;;;;;;;;16.00;68.40;;;;;;10343066;28;19940;-70
2022/11/23 09:33:23;;;;;;;;;;;16.00;68.20;;;;;;10341380;28;19935;-70
2022/11/23 09:38:25;;;;;;;;;;;16.00;68.20;;;;;;10342687;28;19989;-70
2022/11/23 09:43:47;;;;;;;;;;;16.00;68.20;;;;;;10342779;28;20324;-70
2022/11/23 09:49:09;;;;;;;;;;;15.90;68.20;;;;;;10340868;28;20409;-70
2022/11/23 09:54:14;;;;;;;;;;;15.90;68.20;;;;;;10342330;28;20034;-70
2022/11/23 09:59:24;;;;;;;;;;;15.90;69.40;;;;;;10342294;28;19973;-70
2022/11/23 10:04:28;;;;;;;;;;;15.90;68.40;;;;;;10342254;28;19986;-70
2022/11/23 10:09:46;;;;;;;;;;;15.80;68.40;;;;;;10341955;28;19938;-70
2022/11/23 10:14:48;;;;;;;;;;;15.80;68.50;;;;;;10342255;28;19934;-70
2022/11/23 10:20:28;;;;;;;;;;;15.80;68.50;;;;;;10342160;28;20028;-70
2022/11/23 10:25:46;;;;;;;;;;;15.80;68.70;;;;;;10216437;29;20037;-70
2022/11/23 10:30:52;;;;;;;;;;;15.80;68.80;;;;;;10320200;28;19934;-71
2022/11/23 10:35:54;;;;;;;;;;;15.80;68.80;;;;;;10343095;28;19934;-70
2022/11/23 10:40:58;;;;;;;;;;;16.00;68.70;;;;;;10348529;28;20064;-70
2022/11/23 10:46:30;;;;;;;;;;;16.00;68.30;;;;;;10348380;28;19993;-70
2022/11/23 10:51:32;;;;;;;;;;;16.10;68.20;;;;;;10325505;28;20432;-70
2022/11/23 10:56:34;;;;;;;;;;;16.10;68.20;;;;;;10347806;28;20080;-70
2022/11/23 11:01:36;;;;;;;;;;;16.00;68.10;;;;;;10348048;28;20345;-70
2022/11/23 11:06:37;;;;;;;;;;;16.00;68.10;;;;;;10347236;28;20017;-70
2022/11/23 11:11:44;;;;;;;;;;;16.00;68.30;;;;;;10346642;28;20036;-70
2022/11/23 11:16:50;;;;;;;;;;;16.00;68.50;;;;;;10346550;28;20024;-70
2022/11/23 11:21:52;;;;;;;;;;;15.90;68.50;;;;;;10347439;28;20425;-70
2022/11/23 11:26:58;;;;;;;;;;;15.90;68.70;;;;;;10345574;28;19973;-70
2022/11/23 11:32:08;;;;;;;;;;;15.90;68.80;;;;;;10346582;28;20021;-70
2022/11/23 11:37:21;;;;;;;;;;;15.80;68.80;;;;;;10346246;28;20360;-70
2022/11/23 11:42:29;;;;;;;;;;;15.80;69.00;;;;;;10344690;28;20024;-70
2022/11/23 11:47:36;;;;;;;;;;;15.80;69.00;;;;;;10345170;28;19965;-70
2022/11/23 11:52:39;;;;;;;;;;;15.80;69.10;;;;;;10345885;28;20206;-69
2022/11/23 11:57:50;;;;;;;;;;;15.70;69.10;;;;;;10345855;28;19940;-70
2022/11/23 12:02:58;;;;;;;;;;;15.70;69.10;;;;;;10343940;28;20018;-70
2022/11/23 12:08:19;;;;;;;;;;;15.70;69.20;;;;;;10345832;28;20053;-70
2022/11/23 12:13:28;;;;;;;;;;;15.70;69.40;;;;;;10345114;28;20052;-71
2022/11/23 12:18:33;;;;;;;;;;;15.70;69.40;;;;;;10345488;28;19934;-70
2022/11/23 12:24:01;;;;;;;;;;;15.70;69.50;;;;;;10344938;28;19986;-70
2022/11/23 12:29:24;;;;;;;;;;;15.70;69.60;;;;;;10344608;28;19934;-70
2022/11/23 12:34:36;;;;;;;;;;;15.70;69.60;;;;;;10344421;28;19938;-70
2022/11/23 12:39:53;;;;;;;;;;;15.70;69.60;;;;;;10343859;28;20698;-70
2022/11/23 12:45:02;;;;;;;;;;;15.70;69.60;;;;;;10344510;28;19934;-70
2022/11/23 12:50:14;;;;;;;;;;;15.70;69.60;;;;;;10344232;28;20020;-70
2022/11/23 12:55:32;;;;;;;;;;;15.70;69.50;;;;;;10341757;28;19974;-71
2022/11/23 13:00:41;;;;;;;;;;;15.70;69.50;;;;;;10342695;28;19980;-70
2022/11/23 13:05:59;;;;;;;;;;;15.70;69.50;;;;;;10342490;28;19938;-70
2022/11/23 13:11:19;;;;;;;;;;;15.70;69.50;;;;;;10344239;28;19934;-70
2022/11/23 13:16:20;;;;;;;;;;;15.70;69.60;;;;;;10343539;28;19941;-70
2022/11/23 13:21:33;;;;;;;;;;;15.70;69.60;;;;;;10343367;28;19933;-70
2022/11/23 13:26:34;;;;;;;;;;;15.70;69.70;;;;;;10341669;28;19952;-70
2022/11/23 13:31:36;;;;;;;;;;;15.70;69.70;;;;;;10342032;28;19934;-70
2022/11/23 13:36:41;;;;;;;;;;;15.70;69.80;;;;;;10343492;28;20400;-70
2022/11/23 13:42:04;;;;;;;;;;;15.60;69.70;;;;;;10342624;28;20879;-70
2022/11/23 13:47:16;;;;;;;;;;;15.60;69.70;;;;;;10343270;28;20020;-70
2022/11/23 13:52:21;;;;;;;;;;;15.60;69.80;;;;;;10342324;28;20025;-70
2022/11/23 13:57:23;;;;;;;;;;;15.70;69.80;;;;;;10342361;28;19934;-70
2022/11/23 14:02:26;;;;;;;;;;;15.80;69.50;;;;;;10341694;28;20060;-70
2022/11/23 14:07:34;;;;;;;;;;;15.80;69.30;;;;;;10341228;28;20316;-70
2022/11/23 14:12:55;;;;;;;;;;;15.80;69.20;;;;;;10342085;28;20020;-71
2022/11/23 14:18:09;;;;;;;;;;;15.80;69.30;;;;;;10340912;28;19966;-71
2022/11/23 14:23:14;;;;;;;;;;;15.80;69.20;;;;;;10342508;28;19996;-70
2022/11/23 14:28:35;;;;;;;;;;;15.80;69.30;;;;;;10341534;28;20045;-70
2022/11/23 14:33:45;;;;;;;;;;;15.80;69.50;;;;;;10342536;28;20021;-70
2022/11/23 14:38:55;;;;;;;;;;;15.90;69.10;;;;;;10342406;28;19940;-69
2022/11/23 14:43:59;;;;;;;;;;;15.90;68.90;;;;;;10341518;28;19934;-70
2022/11/23 14:49:05;;;;;;;;;;;16.00;68.80;;;;;;10341555;28;20021;-70
2022/11/23 14:54:09;;;;;;;;;;;16.00;68.70;;;;;;10341624;28;20163;-71
2022/11/23 14:59:16;;;;;;;;;;;15.90;68.70;;;;;;10340718;28;20075;-71
2022/11/23 15:04:33;;;;;;;;;;;15.90;68.70;;;;;;10340012;28;19957;-70
2022/11/23 15:09:43;;;;;;;;;;;15.90;68.80;;;;;;10340586;28;19934;-71
2022/11/23 15:14:45;;;;;;;;;;;15.80;68.90;;;;;;10340003;28;20036;-71
2022/11/23 15:19:59;;;;;;;;;;;15.80;68.90;;;;;;10339909;28;20029;-71
2022/11/23 15:25:07;;;;;;;;;;;15.80;69.00;;;;;;10342844;28;19934;-69
2022/11/23 15:30:17;;;;;;;;;;;15.70;69.10;;;;;;10347388;28;20358;-71
2022/11/23 15:35:20;;;;;;;;;;;15.70;69.20;;;;;;10346237;28;20049;-71
2022/11/23 15:40:22;;;;;;;;;;;15.70;69.20;;;;;;10346323;28;20028;-70
2022/11/23 15:45:34;;;;;;;;;;;15.60;69.30;;;;;;10346524;28;19934;-69
2022/11/23 15:50:44;;;;;;;;;;;15.60;69.40;;;;;;10346346;28;19934;-70
2022/11/23 15:55:46;;;;;;;;;;;15.70;69.30;;;;;;10345274;28;20033;-70
2022/11/23 16:00:53;;;;;;;;;;;15.80;69.10;;;;;;10346162;28;19934;-70
2022/11/23 16:06:27;;;;;;;;;;;15.90;68.90;;;;;;10345255;28;19977;-69
2022/11/23 16:11:33;;;;;;;;;;;15.90;68.80;;;;;;10312676;28;20029;-70
2022/11/23 16:16:35;;;;;;;;;;;16.00;68.90;;;;;;10345425;28;19940;-70
2022/11/23 16:21:43;;;;;;;;;;;16.30;68.50;;;;;;10344576;28;19957;-70
2022/11/23 16:26:45;;;;;;;;;;;16.80;67.60;;;;;;10345150;28;20028;-70
2022/11/23 16:31:54;;;;;;;;;;;17.20;66.80;;;;;;10344271;28;19934;-70
2022/11/23 16:36:57;;;;;;;;;;;17.50;66.00;;;;;;10344855;28;20113;-70
2022/11/23 16:41:59;;;;;;;;;;;17.80;65.40;;;;;;10343750;28;19981;-71
2022/11/23 16:47:13;;;;;;;;;;;18.00;64.80;;;;;;10345198;28;20298;-70
2022/11/23 16:52:15;;;;;;;;;;;18.30;64.30;;;;;;10345338;28;20024;-70
2022/11/23 16:57:21;;;;;;;;;;;18.60;63.90;;;;;;10345485;28;19934;-70
2022/11/23 17:02:23;;;;;;;;;;;;;;;;;;10343131;28;20028;-68
2022/11/23 17:07:25;;;;;;;;;;;18.80;63.10;;;;;;10343229;28;34805;-68
2022/11/23 17:12:27;;;;;;;;;;;18.90;64.60;;;;;;10343406;28;19934;-71
2022/11/23 17:17:29;;;;;;;;;;;18.90;64.90;;;;;;10340741;28;19941;-68
2022/11/23 17:22:30;;;;;;;;;;;18.90;65.00;;;;;;10341351;28;20024;-69
2022/11/23 17:27:34;;;;;;;;;;;19.00;65.40;;;;;;10344188;28;20027;-69
2022/11/23 17:32:35;;;;;;;;;;;19.00;66.00;;;;;;10342226;28;20419;-68
2022/11/23 17:37:37;;;;;;;;;;;19.00;66.00;;;;;;10343037;28;20057;-69
2022/11/23 17:42:39;;;;;;;;;;;18.90;66.20;;;;;;10341717;28;19934;-72
2022/11/23 17:47:41;;;;;;;;;;;18.80;66.30;;;;;;10339852;28;20893;-70
2022/11/23 17:52:44;;;;;;;;;;;18.90;66.30;;;;;;10340863;28;20441;-70
2022/11/23 17:57:45;;;;;;;;;;;18.90;67.30;;;;;;10340766;28;20029;-70
2022/11/23 18:02:47;;;;;;;;;;;18.90;66.30;;;;;;10339819;28;19934;-71
2022/11/23 18:07:49;;;;;;;;;;;18.80;66.10;;;;;;10341377;28;20017;-70
2022/11/23 18:12:51;;;;;;;;;;;18.80;66.40;;;;;;10341309;28;20024;-70
2022/11/23 18:17:52;;;;;;;;;;;18.80;66.60;;;;;;10340946;28;19934;-70
2022/11/23 18:22:54;;;;;;;;;;;18.80;66.40;;;;;;10341106;28;19972;-69
2022/11/23 18:27:56;;;;;;;;;;;19.00;66.20;;;;;;10338596;28;20350;-71
2022/11/23 18:32:58;;;;;;;;;;;19.00;66.00;;;;;;10337802;28;19941;-71
2022/11/23 18:37:59;;;;;;;;;;;18.90;65.90;;;;;;10337695;28;19934;-70
2022/11/23 18:43:01;;;;;;;;;;;18.80;66.00;;;;;;10339706;28;19965;-69
2022/11/23 18:48:03;;;;;;;;;;;18.80;66.10;;;;;;10338724;28;20834;-70
2022/11/23 18:53:05;;;;;;;;;;;18.60;66.20;;;;;;10339124;28;19934;-69
2022/11/23 18:58:07;;;;;;;;;;;18.50;66.40;;;;;;10342721;28;20021;-69
2022/11/23 19:03:08;;;;;;;;;;;18.50;66.70;;;;;;10346813;28;19956;-70
2022/11/23 19:08:10;;;;;;;;;;;18.50;66.70;;;;;;10347422;28;19966;-69
2022/11/23 19:13:12;;;;;;;;;;;18.60;66.60;;;;;;10345899;28;20025;-69
2022/11/23 19:18:13;;;;;;;;;;;18.80;66.40;;;;;;10346068;28;19941;-69
2022/11/23 19:23:15;;;;;;;;;;;18.80;66.10;;;;;;10344141;28;20044;-70
2022/11/23 19:28:16;;;;;;;;;;;18.80;66.00;;;;;;10346688;28;19940;-70
2022/11/23 19:33:18;;;;;;;;;;;18.80;66.20;;;;;;10345720;28;20012;-70
2022/11/23 19:38:20;;;;;;;;;;;18.70;66.40;;;;;;10345772;28;20025;-70
2022/11/23 19:43:21;;;;;;;;;;;18.60;66.50;;;;;;10343868;28;20859;-70
2022/11/23 19:48:23;;;;;;;;;;;18.40;66.70;;;;;;10345461;28;20729;-70
2022/11/23 19:53:25;;;;;;;;;;;18.30;67.00;;;;;;10344997;28;20034;-70
2022/11/23 19:58:31;;;;;;;;;;;18.20;67.40;;;;;;10342788;28;19941;-70
2022/11/23 20:03:33;;;;;;;;;;;18.10;67.70;;;;;;10345536;28;20679;-68
2022/11/23 20:08:37;;;;;;;;;;;18.20;67.80;;;;;;10345192;28;20021;-69
2022/11/23 20:13:39;;;;;;;;;;;18.10;67.70;;;;;;10345437;28;19934;-70
2022/11/23 20:18:41;;;;;;;;;;;18.10;67.90;;;;;;10344296;28;20025;-69
2022/11/23 20:23:44;;;;;;;;;;;18.00;68.10;;;;;;10344792;28;20017;-69
2022/11/23 20:28:49;;;;;;;;;;;18.00;68.10;;;;;;10344310;28;20571;-68
2022/11/23 20:33:52;;;;;;;;;;;18.00;68.20;;;;;;10344284;28;19934;-69
2022/11/23 20:38:54;;;;;;;;;;;18.00;68.10;;;;;;10338928;28;19956;-70
2022/11/23 20:44:00;;;;;;;;;;;18.00;68.30;;;;;;10340581;28;19944;-68
2022/11/23 20:49:02;;;;;;;;;;;17.90;68.30;;;;;;10340751;28;19941;-69
2022/11/23 20:54:04;;;;;;;;;;;17.80;68.40;;;;;;10342639;28;20234;-69
2022/11/23 20:59:05;;;;;;;;;;;17.80;68.60;;;;;;10343764;28;19934;-69
2022/11/23 21:04:07;;;;;;;;;;;17.70;68.80;;;;;;10342700;28;19934;-69
2022/11/23 21:09:11;;;;;;;;;;;17.60;68.90;;;;;;10341342;28;27190;-69
2022/11/23 21:14:14;;;;;;;;;;;17.50;69.20;;;;;;10343290;28;20037;-69
2022/11/23 21:19:19;;;;;;;;;;;17.50;69.30;;;;;;10341135;28;19981;-68
2022/11/23 21:24:21;;;;;;;;;;;17.40;69.50;;;;;;10342536;28;19942;-68
2022/11/23 21:29:23;;;;;;;;;;;17.30;69.60;;;;;;10343776;28;20024;-68
2022/11/23 21:34:26;;;;;;;;;;;17.30;69.80;;;;;;10342830;28;20017;-69
2022/11/23 21:39:29;;;;;;;;;;;17.20;70.00;;;;;;10342528;28;19974;-68
2022/11/23 21:44:31;;;;;;;;;;;17.20;70.10;;;;;;10342830;28;20037;-69
2022/11/23 21:49:33;;;;;;;;;;;17.10;70.20;;;;;;10342232;28;20100;-69
2022/11/23 21:54:35;;;;;;;;;;;17.10;70.40;;;;;;10342260;28;19934;-69
2022/11/23 21:59:37;;;;;;;;;;;17.00;70.40;;;;;;10341960;28;19934;-68
2022/11/23 22:04:39;;;;;;;;;;;16.90;70.50;;;;;;10340748;28;20342;-69
2022/11/23 22:09:40;;;;;;;;;;;16.90;70.70;;;;;;10340584;28;20396;-69
2022/11/23 22:14:42;;;;;;;;;;;16.90;70.70;;;;;;10341656;28;19938;-68
2022/11/23 22:19:44;;;;;;;;;;;16.80;70.60;;;;;;10341479;28;19988;-70
2022/11/23 22:24:46;;;;;;;;;;;16.80;70.60;;;;;;10341832;28;20393;-69
2022/11/23 22:29:48;;;;;;;;;;;16.70;70.50;;;;;;10341728;28;20013;-69
2022/11/23 22:34:50;;;;;;;;;;;16.70;70.60;;;;;;10340440;28;20296;-68
2022/11/23 22:39:52;;;;;;;;;;;16.70;70.70;;;;;;10341643;28;19934;-69
2022/11/23 22:44:54;;;;;;;;;;;16.60;70.60;;;;;;10340586;28;19986;-68
2022/11/23 22:49:55;;;;;;;;;;;16.60;70.70;;;;;;10340354;28;19941;-69
2022/11/23 22:54:57;;;;;;;;;;;16.60;70.80;;;;;;10341211;28;19938;-70
2022/11/23 22:59:59;;;;;;;;;;;16.60;70.70;;;;;;10340455;28;19934;-69
2022/11/23 23:05:01;;;;;;;;;;;16.50;70.60;;;;;;10340927;28;19934;-69
2022/11/23 23:10:03;;;;;;;;;;;16.50;70.70;;;;;;10339042;28;19934;-70
2022/11/23 23:15:05;;;;;;;;;;;16.50;70.70;;;;;;10340658;28;19937;-69
2022/11/23 23:20:07;;;;;;;;;;;16.50;70.80;;;;;;10340055;28;20350;-70
2022/11/23 23:25:08;;;;;;;;;;;16.50;70.70;;;;;;10340587;28;19938;-68
2022/11/23 23:30:10;;;;;;;;;;;16.40;70.60;;;;;;10339584;28;19934;-68
2022/11/23 23:35:12;;;;;;;;;;;16.40;70.70;;;;;;10340116;28;20005;-68
2022/11/23 23:40:14;;;;;;;;;;;16.40;70.60;;;;;;10339788;28;20041;-68
2022/11/23 23:45:16;;;;;;;;;;;16.40;70.70;;;;;;10343911;28;19938;-68
2022/11/23 23:50:18;;;;;;;;;;;16.30;70.50;;;;;;10347156;28;20407;-70
2022/11/23 23:55:19;;;;;;;;;;;16.30;70.60;;;;;;10346506;28;19934;-68
